Time;durP1;ratioP1;P1;durP2;ratioP2;P2;SDS_P1;SDS_P2;PMS_P1;PMS_P2;Temp;Humidity;BMP_temperature;BMP_pressure;BME280_temperature;BME280_humidity;BME280_pressure;Samples;Min_cycle;Max_cycle;Signal;HPM_P1;HPM_P2
2022/01/25 00:08:48;;;;;;;57.90;23.27;;;4.70;99.90;;;;;;4960232;28;20146;-65
2022/01/25 00:27:41;;;;;;;48.45;22.30;;;4.70;99.90;;;;;;4935678;28;20093;-66
2022/01/25 00:30:31;;;;;;;52.03;24.52;;;4.70;99.90;;;;;;4956090;28;20127;-66
2022/01/25 00:32:57;;;;;;;53.28;23.42;;;4.60;99.90;;;;;;4951140;28;20583;-65
2022/01/25 00:35:23;;;;;;;57.33;21.53;;;4.70;99.90;;;;;;4957811;28;20122;-66
2022/01/25 00:37:49;;;;;;;54.38;22.83;;;4.60;99.90;;;;;;4936947;28;20042;-65
2022/01/25 00:40:15;;;;;;;57.22;23.55;;;4.70;99.90;;;;;;4957217;28;20046;-65
2022/01/25 00:42:41;;;;;;;49.70;22.00;;;4.70;99.90;;;;;;4956873;28;20256;-65
2022/01/25 00:45:08;;;;;;;55.57;23.20;;;4.70;99.90;;;;;;4956334;28;20078;-66
2022/01/25 00:47:34;;;;;;;51.30;21.92;;;4.60;99.90;;;;;;4937772;28;20054;-65
2022/01/25 00:50:00;;;;;;;54.67;23.63;;;4.60;99.90;;;;;;4934562;28;20085;-65
2022/01/25 00:55:03;;;;;;;53.53;22.10;;;4.70;99.90;;;;;;4941672;28;20561;-66
2022/01/25 00:57:29;;;;;;;55.70;23.38;;;4.60;99.90;;;;;;4960160;28;20115;-66
2022/01/25 00:59:54;;;;;;;54.50;23.63;;;4.60;99.90;;;;;;4956597;28;20118;-66
2022/01/25 01:02:20;;;;;;;51.00;23.97;;;4.60;99.90;;;;;;4958189;28;20074;-66
2022/01/25 01:04:46;;;;;;;54.97;22.60;;;4.60;99.90;;;;;;4958287;28;20550;-65
2022/01/25 01:07:15;;;;;;;52.08;22.40;;;4.60;99.90;;;;;;4923509;28;20050;-66
2022/01/25 01:09:44;;;;;;;53.42;22.92;;;4.60;99.90;;;;;;4959666;28;20185;-65
2022/01/25 01:12:23;;;;;;;51.72;22.48;;;4.60;99.90;;;;;;4940039;29;20441;-66
2022/01/25 01:15:23;;;;;;;54.03;24.38;;;4.60;99.90;;;;;;4955601;28;20047;-66
2022/01/25 01:28:52;;;;;;;50.08;22.05;;;4.60;99.90;;;;;;4955243;28;20042;-73
2022/01/25 01:31:30;;;;;;;49.35;22.95;;;4.60;99.90;;;;;;4958862;28;20420;-66
2022/01/25 01:36:59;;;;;;;51.40;22.48;;;4.60;99.90;;;;;;4942189;28;20074;-66
2022/01/25 01:39:41;;;;;;;52.38;23.92;;;4.60;99.90;;;;;;4955604;28;20239;-69
2022/01/25 01:45:11;;;;;;;52.95;23.95;;;4.50;99.90;;;;;;4961201;28;20062;-66
2022/01/25 01:47:49;;;;;;;57.33;23.02;;;4.50;99.90;;;;;;4964273;28;20295;-68
2022/01/25 01:50:27;;;;;;;49.40;22.65;;;4.50;99.90;;;;;;4953015;28;20046;-69
2022/01/25 01:52:53;;;;;;;46.75;21.35;;;4.50;99.90;;;;;;4956900;28;20524;-69
2022/01/25 01:55:19;;;;;;;53.63;22.33;;;4.50;99.90;;;;;;4955744;28;20197;-72
2022/01/25 01:57:46;;;;;;;58.70;22.98;;;4.50;99.90;;;;;;4947597;28;20492;-72
2022/01/25 02:00:13;;;;;;;54.85;23.10;;;4.50;99.90;;;;;;4937984;28;20038;-70
2022/01/25 02:02:39;;;;;;;56.33;23.77;;;4.50;99.90;;;;;;4937360;28;20528;-70
2022/01/25 02:05:05;;;;;;;52.50;21.98;;;4.50;99.90;;;;;;4930512;28;20047;-69
2022/01/25 02:07:31;;;;;;;50.72;22.55;;;4.50;99.90;;;;;;4958235;28;20046;-67
2022/01/25 02:09:56;;;;;;;49.03;20.87;;;4.50;99.90;;;;;;4939086;28;20689;-66
2022/01/25 02:12:22;;;;;;;51.17;23.43;;;4.50;99.90;;;;;;4966324;28;20558;-70
2022/01/25 02:14:48;;;;;;;54.30;22.40;;;4.50;99.90;;;;;;4952958;28;20047;-67
2022/01/25 02:17:40;;;;;;;49.35;21.70;;;4.50;99.90;;;;;;4946688;28;20062;-67
2022/01/25 02:22:53;;;;;;;50.33;21.88;;;4.50;99.90;;;;;;4959880;28;20498;-66
2022/01/25 02:25:18;;;;;;;51.70;22.33;;;4.50;99.90;;;;;;4959003;28;20045;-66
2022/01/25 02:27:44;;;;;;;53.60;21.37;;;4.50;99.90;;;;;;4944597;28;20054;-67
2022/01/25 02:30:10;;;;;;;54.10;21.43;;;4.50;99.90;;;;;;4964850;28;20393;-67
2022/01/25 02:32:36;;;;;;;50.25;22.50;;;4.50;99.90;;;;;;4963776;28;20149;-67
2022/01/25 02:35:02;;;;;;;52.90;23.57;;;4.40;99.90;;;;;;4944901;28;20098;-67
2022/01/25 02:37:28;;;;;;;51.88;22.85;;;4.50;99.90;;;;;;4958160;28;20394;-67
2022/01/25 02:39:54;;;;;;;50.30;21.97;;;4.50;99.90;;;;;;4963996;28;20189;-67
2022/01/25 02:42:20;;;;;;;51.37;21.73;;;4.50;99.90;;;;;;4944393;28;20579;-67
2022/01/25 02:44:46;;;;;;;53.75;22.27;;;4.50;99.90;;;;;;4968921;28;20035;-65
2022/01/25 02:49:57;;;;;;;53.72;23.13;;;4.50;99.90;;;;;;4957281;28;20302;-65
2022/01/25 02:52:22;;;;;;;53.83;22.27;;;4.50;99.90;;;;;;4967777;28;20046;-67
2022/01/25 02:54:48;;;;;;;54.40;22.67;;;4.50;99.90;;;;;;4960031;28;20287;-68
2022/01/25 02:57:14;;;;;;;49.07;21.20;;;4.40;99.90;;;;;;4952166;28;20042;-68
2022/01/25 02:59:40;;;;;;;55.92;23.48;;;4.40;99.90;;;;;;4964255;28;20256;-68
2022/01/25 03:02:06;;;;;;;51.40;22.30;;;4.40;99.90;;;;;;4959047;28;20031;-68
2022/01/25 03:04:31;;;;;;;51.00;22.00;;;4.50;99.90;;;;;;4966066;28;20058;-69
2022/01/25 03:06:57;;;;;;;52.40;23.07;;;4.40;99.90;;;;;;4995367;23;20128;-82
2022/01/25 03:09:23;;;;;;;61.90;24.80;;;4.40;99.90;;;;;;4973586;28;20580;-82
2022/01/25 03:11:51;;;;;;;52.15;23.65;;;4.40;99.90;;;;;;4990209;28;20069;-82
2022/01/25 03:14:20;;;;;;;49.40;21.17;;;4.40;99.90;;;;;;4959476;28;20043;-82
2022/01/25 03:17:10;;;;;;;59.90;23.02;;;4.40;99.90;;;;;;4968466;28;20047;-84
2022/01/25 03:22:03;;;;;;;54.30;23.03;;;4.40;99.90;;;;;;4974962;28;20053;-82
2022/01/25 03:24:29;;;;;;;47.85;21.83;;;4.40;99.90;;;;;;4952038;28;20039;-83
2022/01/25 03:26:55;;;;;;;55.87;23.77;;;4.40;99.90;;;;;;4953941;28;20073;-83
2022/01/25 03:29:23;;;;;;;53.87;23.70;;;4.40;99.90;;;;;;4952532;28;20082;-82
2022/01/25 03:31:48;;;;;;;51.13;21.50;;;4.40;99.90;;;;;;4968128;28;20476;-83
2022/01/25 03:34:14;;;;;;;49.07;22.00;;;4.40;99.90;;;;;;4969234;28;20086;-81
2022/01/25 03:36:41;;;;;;;54.38;23.92;;;4.40;99.90;;;;;;4972296;28;20337;-82
2022/01/25 03:39:07;;;;;;;50.35;21.17;;;4.40;99.90;;;;;;4961708;28;20035;-82
2022/01/25 03:41:34;;;;;;;61.10;24.87;;;4.40;99.90;;;;;;4971951;28;20045;-82
2022/01/25 03:43:59;;;;;;;;;;;4.40;99.90;;;;;;4971878;28;20505;-83
2022/01/25 03:51:41;;;;;;;56.35;22.38;;;4.40;99.90;;;;;;4974864;28;20157;-83
2022/01/25 03:54:06;;;;;;;55.23;22.40;;;4.40;99.90;;;;;;4968610;28;20038;-82
2022/01/25 03:56:35;;;;;;;55.10;21.87;;;4.40;99.90;;;;;;4972439;28;20477;-83
2022/01/25 03:59:00;;;;;;;54.75;22.48;;;4.30;99.90;;;;;;4971885;28;20053;-82
2022/01/25 04:01:26;;;;;;;53.17;22.87;;;4.40;99.90;;;;;;4966045;28;20102;-82
2022/01/25 04:04:02;;;;;;;56.87;23.47;;;4.40;99.90;;;;;;4973815;28;20105;-83
2022/01/25 04:06:31;;;;;;;50.13;22.85;;;4.40;99.90;;;;;;4972839;28;20047;-82
2022/01/25 04:08:58;;;;;;;57.53;23.80;;;4.40;99.90;;;;;;4959178;28;20069;-80
2022/01/25 04:11:24;;;;;;;54.05;23.38;;;4.40;99.90;;;;;;4969393;28;20050;-83
2022/01/25 04:13:53;;;;;;;56.58;23.38;;;4.40;99.90;;;;;;4971334;28;20039;-81
2022/01/25 04:16:24;;;;;;;62.60;25.17;;;4.40;99.90;;;;;;4969483;28;20035;-82
2022/01/25 04:26:53;;;;;;;57.35;24.02;;;4.40;99.90;;;;;;4967179;28;20074;-82
2022/01/25 04:29:19;;;;;;;52.97;22.25;;;4.40;99.90;;;;;;4987461;28;20050;-82
2022/01/25 04:31:44;;;;;;;56.38;23.15;;;4.40;99.90;;;;;;4972035;28;20057;-83
2022/01/25 04:50:34;;;;;;;51.60;22.25;;;4.30;99.90;;;;;;4966869;28;20117;-82
2022/01/25 04:53:32;;;;;;;53.20;22.70;;;4.40;99.90;;;;;;4970450;28;20217;-83
2022/01/25 04:58:38;;;;;;;50.55;21.77;;;4.40;99.90;;;;;;4969798;28;20039;-83
2022/01/25 05:01:04;;;;;;;55.80;21.65;;;4.30;99.90;;;;;;4953759;28;20046;-82
2022/01/25 05:03:45;;;;;;;61.33;25.07;;;4.40;99.90;;;;;;4970743;28;20061;-82
2022/01/25 05:06:14;;;;;;;56.90;24.48;;;4.40;99.90;;;;;;4968100;28;20093;-80
2022/01/25 05:08:46;;;;;;;52.63;23.70;;;4.40;99.90;;;;;;4956994;28;20493;-83
2022/01/25 05:11:27;;;;;;;55.65;22.45;;;4.40;99.90;;;;;;4952781;28;20066;-83
2022/01/25 05:14:11;;;;;;;56.72;22.55;;;4.30;99.90;;;;;;4965659;28;20031;-82
2022/01/25 05:16:58;;;;;;;57.88;23.77;;;4.40;99.90;;;;;;4951930;28;20039;-82
2022/01/25 05:22:18;;;;;;;61.23;23.80;;;4.40;99.90;;;;;;4972739;28;20050;-82
2022/01/25 05:24:44;;;;;;;64.10;23.83;;;4.40;99.90;;;;;;4969533;28;20053;-82
2022/01/25 05:27:12;;;;;;;60.20;24.20;;;4.40;99.90;;;;;;4967141;28;20038;-82
2022/01/25 05:29:38;;;;;;;62.90;24.20;;;4.30;99.90;;;;;;4971271;28;20206;-82
2022/01/25 05:32:05;;;;;;;52.22;22.85;;;4.40;99.90;;;;;;4953723;28;20082;-84
2022/01/25 05:34:31;;;;;;;47.80;22.15;;;4.40;99.90;;;;;;4955222;28;20046;-83
2022/01/25 05:36:57;;;;;;;56.23;24.67;;;4.30;99.90;;;;;;4970524;28;20039;-83
2022/01/25 05:39:28;;;;;;;53.15;22.92;;;4.40;99.90;;;;;;4972921;28;20093;-82
2022/01/25 05:42:00;;;;;;;55.65;22.88;;;4.40;99.90;;;;;;4970936;28;20052;-82
2022/01/25 05:49:23;;;;;;;60.92;23.70;;;4.40;99.90;;;;;;4967430;28;20058;-82
2022/01/25 05:51:49;;;;;;;56.67;24.15;;;4.40;99.90;;;;;;4968462;28;20102;-83
2022/01/25 05:54:15;;;;;;;62.25;23.67;;;4.40;99.90;;;;;;4970908;28;20081;-82
2022/01/25 05:56:41;;;;;;;55.75;23.95;;;4.40;99.90;;;;;;4971417;28;20397;-83
2022/01/25 05:59:07;;;;;;;53.97;23.90;;;4.40;99.90;;;;;;4967332;28;20043;-83
2022/01/25 06:01:35;;;;;;;56.03;23.70;;;4.30;99.90;;;;;;4969627;28;20046;-82
2022/01/25 06:04:01;;;;;;;61.08;24.23;;;4.30;99.90;;;;;;4971507;28;20050;-81
2022/01/25 06:06:27;;;;;;;63.50;25.85;;;4.40;99.90;;;;;;4966391;28;20043;-83
2022/01/25 06:08:53;;;;;;;58.75;24.23;;;4.30;99.90;;;;;;4973843;28;20140;-83
2022/01/25 06:11:20;;;;;;;59.10;24.20;;;4.30;99.90;;;;;;4976408;28;20505;-83
2022/01/25 06:13:46;;;;;;;62.38;24.70;;;4.40;99.90;;;;;;4973741;28;20047;-84
2022/01/25 06:16:11;;;;;;;56.67;23.37;;;4.40;99.90;;;;;;4969438;28;20057;-84
2022/01/25 06:18:37;;;;;;;58.23;24.37;;;4.40;99.90;;;;;;4959711;28;20304;-84
2022/01/25 06:21:02;;;;;;;62.33;25.37;;;4.30;99.90;;;;;;4972753;28;20046;-83
2022/01/25 06:23:28;;;;;;;61.20;25.10;;;4.30;99.90;;;;;;4978161;28;20046;-83
2022/01/25 06:25:53;;;;;;;58.90;24.47;;;4.30;99.90;;;;;;4972075;28;20102;-84
2022/01/25 06:28:19;;;;;;;58.90;23.40;;;4.40;99.90;;;;;;4976734;28;20505;-85
2022/01/25 06:30:45;;;;;;;59.72;25.20;;;4.40;99.90;;;;;;4974371;28;20034;-84
2022/01/25 06:33:11;;;;;;;62.60;24.73;;;4.30;99.90;;;;;;4964680;28;20430;-82
2022/01/25 06:35:37;;;;;;;54.80;24.20;;;4.40;99.90;;;;;;4980156;28;20509;-83
2022/01/25 06:38:02;;;;;;;58.95;24.50;;;4.40;99.90;;;;;;4980041;28;20042;-84
2022/01/25 06:40:28;;;;;;;57.73;24.73;;;4.40;99.90;;;;;;4964603;28;20041;-83
2022/01/25 06:42:54;;;;;;;59.93;25.53;;;4.40;99.90;;;;;;4977146;28;20051;-83
2022/01/25 06:45:22;;;;;;;58.80;25.90;;;4.40;99.90;;;;;;4957312;28;20074;-83
2022/01/25 06:47:49;;;;;;;55.58;23.83;;;4.40;99.90;;;;;;4971937;28;20125;-83
2022/01/25 06:50:16;;;;;;;56.47;25.25;;;4.40;99.90;;;;;;4955137;28;20125;-83
2022/01/25 06:52:42;;;;;;;55.05;23.85;;;4.40;99.90;;;;;;4960166;28;20129;-85
2022/01/25 06:55:14;;;;;;;64.95;24.25;;;4.40;99.90;;;;;;4989510;28;20493;-82
2022/01/25 06:57:43;;;;;;;64.57;25.63;;;4.40;99.90;;;;;;4968760;28;20455;-83
2022/01/25 07:00:15;;;;;;;56.15;24.60;;;4.40;99.90;;;;;;4959686;28;20133;-82
2022/01/25 07:02:41;;;;;;;58.30;23.67;;;4.40;99.90;;;;;;4963243;28;20058;-83
2022/01/25 07:05:08;;;;;;;58.35;24.77;;;4.40;99.90;;;;;;4970344;28;20050;-81
2022/01/25 07:07:34;;;;;;;65.63;25.73;;;4.40;99.90;;;;;;4973463;28;20070;-82
2022/01/25 07:09:59;;;;;;;58.50;24.48;;;4.40;99.90;;;;;;4971615;28;20042;-82
2022/01/25 07:12:25;;;;;;;57.40;24.97;;;4.40;99.90;;;;;;4972985;28;20132;-83
2022/01/25 07:14:51;;;;;;;56.33;24.65;;;4.40;99.90;;;;;;4958060;28;20501;-83
2022/01/25 07:17:17;;;;;;;64.63;24.43;;;4.40;99.90;;;;;;4948997;28;20039;-82
2022/01/25 07:19:42;;;;;;;59.53;24.07;;;4.30;99.90;;;;;;4973532;28;20056;-82
2022/01/25 07:22:08;;;;;;;63.97;25.33;;;4.40;99.90;;;;;;4955035;28;20501;-82
2022/01/25 07:24:33;;;;;;;57.40;24.53;;;4.40;99.90;;;;;;4954071;28;20533;-84
2022/01/25 07:26:59;;;;;;;58.40;23.90;;;4.40;99.90;;;;;;4970513;28;20069;-82
2022/01/25 07:29:25;;;;;;;48.50;21.57;;;4.40;99.90;;;;;;4968654;28;20043;-82
2022/01/25 07:31:50;;;;;;;61.90;24.50;;;4.40;99.90;;;;;;4966887;28;20046;-83
2022/01/25 07:34:16;;;;;;;61.53;25.63;;;4.40;99.90;;;;;;4969210;28;20027;-83
2022/01/25 07:36:43;;;;;;;59.20;25.17;;;4.40;99.90;;;;;;4966262;28;20031;-83
2022/01/25 07:39:10;;;;;;;54.95;24.00;;;4.40;99.90;;;;;;4943673;28;20039;-82
2022/01/25 07:41:37;;;;;;;63.55;25.63;;;4.40;99.90;;;;;;4946184;28;20389;-83
2022/01/25 07:44:03;;;;;;;56.78;23.02;;;4.40;99.90;;;;;;4958035;28;20042;-83
2022/01/25 07:46:29;;;;;;;53.58;23.20;;;4.40;99.90;;;;;;4949319;28;20038;-83
2022/01/25 07:48:55;;;;;;;65.80;25.85;;;4.40;99.90;;;;;;4967987;28;20132;-83
2022/01/25 07:51:26;;;;;;;57.55;24.63;;;4.40;99.90;;;;;;4970095;28;20038;-82
2022/01/25 07:53:54;;;;;;;55.97;24.05;;;4.30;99.90;;;;;;4951079;28;20043;-84
2022/01/25 07:56:20;;;;;;;57.70;23.70;;;4.30;99.90;;;;;;4969808;28;20493;-84
2022/01/25 07:58:47;;;;;;;52.72;22.85;;;4.40;99.90;;;;;;4953335;28;20042;-83
2022/01/25 08:01:14;;;;;;;61.00;25.13;;;4.40;99.90;;;;;;4971669;28;20038;-83
2022/01/25 08:03:39;;;;;;;54.60;25.33;;;4.40;99.90;;;;;;4968375;28;20085;-84
2022/01/25 08:06:07;;;;;;;55.87;23.87;;;4.40;99.90;;;;;;4970668;28;20035;-83
2022/01/25 08:08:33;;;;;;;58.97;26.00;;;4.40;99.90;;;;;;4968536;28;20058;-84
2022/01/25 08:11:00;;;;;;;55.17;22.52;;;4.30;99.90;;;;;;4967944;28;20038;-84
2022/01/25 08:14:11;;;;;;;67.93;24.75;;;4.30;99.90;;;;;;4951711;28;20477;-85
2022/01/25 08:16:55;;;;;;;54.58;22.73;;;4.30;99.90;;;;;;4977043;23;20056;-66
2022/01/25 08:19:21;;;;;;;61.87;26.53;;;4.40;99.90;;;;;;4970512;28;20050;-66
2022/01/25 08:21:47;;;;;;;57.80;24.70;;;4.30;99.90;;;;;;4965124;28;20082;-66
2022/01/25 08:24:15;;;;;;;;;;;4.40;99.90;;;;;;4965338;28;20050;-66
2022/01/25 08:26:42;;;;;;;59.08;24.30;;;4.40;99.90;;;;;;4974431;28;19918;-66
2022/01/25 08:29:08;;;;;;;61.92;23.95;;;4.40;99.90;;;;;;4956688;28;20105;-65
2022/01/25 08:31:34;;;;;;;55.70;22.67;;;4.40;99.90;;;;;;4956925;28;20209;-66
2022/01/25 08:34:00;;;;;;;59.33;25.52;;;4.30;99.90;;;;;;4956524;28;20038;-66
2022/01/25 08:36:27;;;;;;;55.50;23.30;;;4.40;99.90;;;;;;4964592;28;20182;-66
2022/01/25 08:38:53;;;;;;;61.50;24.23;;;4.40;99.90;;;;;;4944727;28;20042;-67
2022/01/25 08:41:19;;;;;;;58.42;23.55;;;4.40;99.90;;;;;;4951412;28;20170;-66
2022/01/25 08:43:45;;;;;;;57.28;22.70;;;4.40;99.90;;;;;;4962876;28;20042;-66
2022/01/25 08:46:11;;;;;;;54.47;22.77;;;4.40;99.90;;;;;;4961276;28;20319;-66
2022/01/25 08:48:37;;;;;;;58.83;23.88;;;4.40;99.90;;;;;;4959037;28;20085;-66
2022/01/25 08:51:04;;;;;;;64.40;25.63;;;4.40;99.90;;;;;;4957213;28;20131;-66
2022/01/25 08:53:30;;;;;;;;;;;4.40;99.90;;;;;;4958726;28;20050;-67
2022/01/25 08:55:56;;;;;;;58.92;24.35;;;4.40;99.90;;;;;;4974590;28;19949;-66
2022/01/25 08:58:22;;;;;;;66.63;25.88;;;4.40;99.90;;;;;;4961078;28;20050;-66
2022/01/25 09:00:47;;;;;;;64.10;25.47;;;4.40;99.90;;;;;;4961848;28;20053;-66
2022/01/25 09:03:13;;;;;;;67.33;27.80;;;4.40;99.90;;;;;;4962107;28;20043;-66
2022/01/25 09:05:39;;;;;;;70.22;26.42;;;4.40;99.90;;;;;;4960980;28;20363;-66
2022/01/25 09:08:06;;;;;;;61.73;26.50;;;4.40;99.90;;;;;;4971386;23;20409;-68
2022/01/25 09:10:32;;;;;;;64.53;27.92;;;4.40;99.90;;;;;;4951511;28;20106;-69
2022/01/25 09:12:59;;;;;;;62.67;24.92;;;4.40;99.90;;;;;;4960318;28;20716;-68
2022/01/25 09:15:25;;;;;;;56.53;25.38;;;4.40;99.90;;;;;;4956908;28;20039;-68
2022/01/25 09:17:51;;;;;;;58.40;24.08;;;4.50;99.90;;;;;;4952229;28;20407;-68
2022/01/25 09:20:17;;;;;;;58.28;24.58;;;4.50;99.90;;;;;;4953689;28;20169;-68
2022/01/25 09:22:42;;;;;;;58.15;23.92;;;4.50;99.90;;;;;;4952154;28;20574;-68
2022/01/25 09:25:09;;;;;;;59.27;25.57;;;4.50;99.90;;;;;;4943577;28;20070;-68
2022/01/25 09:27:35;;;;;;;61.15;24.15;;;4.50;99.90;;;;;;4955360;28;20455;-67
2022/01/25 09:30:01;;;;;;;58.40;25.37;;;4.50;99.90;;;;;;4951866;28;20051;-68
2022/01/25 09:32:26;;;;;;;55.87;25.07;;;4.50;99.90;;;;;;4953553;28;20038;-68
2022/01/25 09:34:52;;;;;;;61.03;25.60;;;4.50;99.90;;;;;;4967014;28;20083;-67
2022/01/25 09:37:18;;;;;;;58.60;23.87;;;4.50;99.90;;;;;;4948861;28;20189;-68
2022/01/25 09:39:43;;;;;;;58.50;23.93;;;4.50;99.90;;;;;;4953953;28;20542;-68
2022/01/25 09:42:10;;;;;;;53.57;24.47;;;4.50;99.90;;;;;;4965711;28;20037;-68
2022/01/25 09:44:38;;;;;;;57.10;23.48;;;4.50;99.90;;;;;;4946610;28;20133;-68
2022/01/25 09:47:05;;;;;;;57.53;24.55;;;4.50;99.90;;;;;;4957608;28;20050;-68
2022/01/25 09:49:32;;;;;;;55.15;23.95;;;4.50;99.90;;;;;;4957202;28;20043;-68
2022/01/25 09:52:00;;;;;;;56.60;23.35;;;4.50;99.90;;;;;;4954522;28;20043;-68
2022/01/25 09:54:26;;;;;;;53.67;23.90;;;4.50;99.90;;;;;;4961020;28;20090;-68
2022/01/25 09:56:52;;;;;;;60.50;24.70;;;4.60;99.90;;;;;;4951987;28;20035;-68
2022/01/25 09:59:17;;;;;;;59.03;24.27;;;4.60;99.90;;;;;;4980900;28;20404;-68
2022/01/25 10:01:43;;;;;;;47.03;23.17;;;4.50;99.90;;;;;;4950523;28;20106;-68
2022/01/25 10:04:36;;;;;;;56.40;23.83;;;4.50;99.90;;;;;;4957853;28;20459;-68
2022/01/25 10:07:05;;;;;;;58.67;24.98;;;4.50;99.90;;;;;;4957214;28;20855;-69
2022/01/25 10:09:32;;;;;;;55.03;23.52;;;4.50;99.90;;;;;;4952872;28;20046;-69
2022/01/25 10:12:19;;;;;;;59.28;23.63;;;4.60;99.90;;;;;;4958929;28;20191;-68
2022/01/25 10:15:00;;;;;;;51.97;23.07;;;4.50;99.90;;;;;;4960371;28;20054;-68
2022/01/25 10:17:33;;;;;;;58.28;22.10;;;4.60;99.90;;;;;;4961762;28;20055;-68
2022/01/25 10:19:59;;;;;;;55.53;22.98;;;4.60;99.90;;;;;;4963033;28;20054;-68
2022/01/25 10:22:26;;;;;;;57.83;24.52;;;4.60;99.90;;;;;;4951316;28;20126;-69
2022/01/25 10:24:51;;;;;;;54.75;22.85;;;4.50;99.90;;;;;;4977255;28;20751;-69
2022/01/25 10:27:57;;;;;;;57.87;24.30;;;4.60;99.90;;;;;;4958170;28;20049;-68
2022/01/25 10:30:10;;;;;;;58.40;24.30;;;4.60;99.90;;;;;;4961184;28;20447;-68
2022/01/25 10:32:38;;;;;;;58.28;23.60;;;4.60;99.90;;;;;;4955132;28;20039;-69
2022/01/25 10:35:13;;;;;;;58.05;24.67;;;4.60;99.90;;;;;;4967408;28;20680;-69
2022/01/25 10:37:41;;;;;;;67.90;24.08;;;4.60;99.90;;;;;;4962607;28;20282;-68
2022/01/25 10:40:07;;;;;;;55.92;25.42;;;4.60;99.90;;;;;;4964429;28;20038;-68
2022/01/25 10:42:34;;;;;;;65.07;24.70;;;4.60;99.90;;;;;;4963843;28;20042;-68
2022/01/25 10:45:09;;;;;;;56.95;24.30;;;4.60;99.90;;;;;;4956092;28;20116;-68
2022/01/25 10:47:44;;;;;;;61.58;25.17;;;4.60;99.90;;;;;;4960297;28;20042;-70
2022/01/25 10:50:39;;;;;;;53.60;23.67;;;4.60;99.90;;;;;;4955825;28;20062;-69
2022/01/25 10:53:16;;;;;;;58.13;25.50;;;4.60;99.90;;;;;;4964641;28;20525;-70
2022/01/25 10:55:47;;;;;;;60.08;24.77;;;4.60;99.90;;;;;;4959883;28;20082;-69
2022/01/25 10:58:13;;;;;;;65.50;26.02;;;4.50;99.90;;;;;;4955794;28;20213;-69
2022/01/25 11:00:42;;;;;;;64.65;26.70;;;4.60;99.90;;;;;;4956606;28;20055;-69
2022/01/25 11:03:08;;;;;;;55.88;24.27;;;4.50;99.90;;;;;;4965483;28;20331;-69
2022/01/25 11:05:37;;;;;;;65.23;25.47;;;4.60;99.90;;;;;;4958647;28;20071;-69
2022/01/25 11:08:10;;;;;;;57.42;24.67;;;4.60;99.90;;;;;;4962172;28;20043;-70
2022/01/25 11:10:43;;;;;;;64.95;25.50;;;4.60;99.90;;;;;;4948045;28;20050;-69
2022/01/25 11:13:22;;;;;;;59.88;24.75;;;4.60;99.90;;;;;;4961680;28;20547;-69
2022/01/25 11:15:48;;;;;;;60.17;24.52;;;4.50;99.90;;;;;;4959699;28;20108;-69
2022/01/25 11:18:13;;;;;;;60.77;25.87;;;4.60;99.90;;;;;;4981515;28;20082;-67
2022/01/25 11:20:39;;;;;;;60.40;25.27;;;4.60;99.90;;;;;;4963020;28;20318;-67
2022/01/25 11:23:05;;;;;;;61.40;25.70;;;4.60;99.90;;;;;;4965481;28;20466;-68
2022/01/25 11:25:31;;;;;;;63.85;25.92;;;4.50;99.90;;;;;;4961377;28;20837;-68
2022/01/25 11:27:58;;;;;;;66.23;26.83;;;4.60;99.90;;;;;;4978726;28;20122;-68
2022/01/25 11:30:23;;;;;;;52.92;23.60;;;4.60;99.90;;;;;;4972537;28;20102;-68
2022/01/25 11:32:50;;;;;;;58.67;22.00;;;4.60;99.90;;;;;;4963271;28;20066;-68
2022/01/25 11:35:20;;;;;;;60.55;24.10;;;4.60;99.90;;;;;;4964628;28;20046;-68
2022/01/25 11:37:48;;;;;;;61.05;24.83;;;4.60;99.90;;;;;;4972087;28;20207;-68
2022/01/25 11:40:30;;;;;;;57.90;24.42;;;4.70;99.90;;;;;;4962245;28;20089;-68
2022/01/25 11:43:00;;;;;;;62.55;23.67;;;4.60;99.90;;;;;;4961509;28;20396;-69
2022/01/25 11:45:29;;;;;;;66.15;26.17;;;4.60;99.90;;;;;;4953703;28;20133;-68
2022/01/25 11:47:55;;;;;;;63.92;23.88;;;4.60;99.90;;;;;;4968166;28;20049;-68
2022/01/25 11:50:36;;;;;;;63.55;24.63;;;4.70;99.90;;;;;;4969990;28;20453;-68
2022/01/25 11:53:07;;;;;;;60.38;24.13;;;4.60;99.90;;;;;;4963717;28;20050;-68
2022/01/25 11:55:36;;;;;;;63.65;25.13;;;4.60;99.90;;;;;;4963126;28;20093;-68
2022/01/25 11:58:10;;;;;;;58.35;24.77;;;4.60;99.90;;;;;;4955034;28;20038;-69
2022/01/25 12:00:40;;;;;;;67.25;26.23;;;4.60;99.90;;;;;;4960527;28;20190;-68
2022/01/25 12:03:29;;;;;;;59.65;25.20;;;4.60;99.90;;;;;;4961148;28;20419;-68
2022/01/25 12:06:06;;;;;;;59.80;24.42;;;4.60;99.90;;;;;;4966324;28;20113;-68
2022/01/25 12:08:42;;;;;;;70.40;28.30;;;4.60;99.90;;;;;;4954066;28;20392;-68
2022/01/25 12:11:39;;;;;;;61.60;24.58;;;4.70;99.90;;;;;;4961481;28;20441;-68
2022/01/25 12:14:36;;;;;;;61.70;25.33;;;4.60;99.90;;;;;;4956483;28;20403;-68
2022/01/25 12:17:02;;;;;;;68.15;26.58;;;4.60;99.90;;;;;;4944309;28;20051;-68
2022/01/25 12:19:30;;;;;;;61.87;25.03;;;4.60;99.90;;;;;;4958782;28;20035;-68
2022/01/25 12:22:03;;;;;;;59.88;25.73;;;4.70;99.90;;;;;;4945630;28;20655;-68
2022/01/25 12:24:50;;;;;;;63.67;25.33;;;4.60;99.90;;;;;;4960474;28;20046;-68
2022/01/25 12:29:57;;;;;;;63.42;27.05;;;4.60;99.90;;;;;;4952893;28;20051;-68
2022/01/25 12:32:33;;;;;;;58.92;26.38;;;4.70;99.90;;;;;;4959906;28;20047;-68
2022/01/25 12:35:09;;;;;;;61.67;25.00;;;4.70;99.90;;;;;;4962648;28;20105;-68
2022/01/25 12:37:44;;;;;;;65.20;26.77;;;4.70;99.90;;;;;;4952945;28;20058;-68
2022/01/25 12:40:25;;;;;;;65.72;25.52;;;4.60;99.90;;;;;;4958401;28;20062;-68
2022/01/25 12:43:34;;;;;;;66.15;28.50;;;4.70;99.90;;;;;;4962586;28;20047;-68
2022/01/25 12:46:10;;;;;;;59.13;25.80;;;4.60;99.90;;;;;;4946203;28;20055;-68
2022/01/25 12:48:42;;;;;;;64.10;27.67;;;4.60;99.90;;;;;;4955455;28;20500;-69
2022/01/25 12:51:10;;;;;;;59.03;25.58;;;4.70;99.90;;;;;;4962120;28;20051;-68
2022/01/25 12:53:39;;;;;;;61.63;25.25;;;4.70;99.90;;;;;;4952221;28;20067;-68
2022/01/25 12:56:10;;;;;;;64.10;25.95;;;4.70;99.90;;;;;;4960984;28;20046;-68
2022/01/25 12:58:36;;;;;;;69.63;27.00;;;4.70;99.90;;;;;;4959252;28;20047;-68
2022/01/25 13:01:05;;;;;;;61.95;26.00;;;4.70;99.90;;;;;;4954237;28;20094;-68
2022/01/25 13:03:34;;;;;;;65.40;26.65;;;4.70;99.90;;;;;;4953653;28;20043;-69
2022/01/25 13:06:22;;;;;;;67.57;26.33;;;4.60;99.90;;;;;;4958715;28;20047;-68
2022/01/25 13:08:53;;;;;;;;;;;4.70;99.90;;;;;;4950657;28;20476;-68
2022/01/25 13:11:25;;;;;;;59.53;24.88;;;4.70;99.90;;;;;;4956089;28;20072;-68
2022/01/25 13:16:47;;;;;;;59.90;24.10;;;4.60;99.90;;;;;;4948947;28;20069;-68
2022/01/25 13:19:16;;;;;;;57.45;22.98;;;4.60;99.90;;;;;;4957433;28;20038;-68
2022/01/25 13:21:45;;;;;;;59.63;24.92;;;4.60;99.90;;;;;;4966279;28;20560;-68
2022/01/25 13:24:18;;;;;;;70.38;26.58;;;4.70;99.90;;;;;;4955676;28;20518;-68
2022/01/25 13:27:13;;;;;;;63.45;24.98;;;4.60;99.90;;;;;;4961982;28;21786;-68
2022/01/25 13:32:35;;;;;;;64.72;27.77;;;4.60;99.90;;;;;;4953956;28;20420;-68
2022/01/25 13:35:27;;;;;;;63.75;24.88;;;4.60;99.90;;;;;;4959275;28;20378;-68
2022/01/25 13:38:06;;;;;;;58.58;25.10;;;4.60;99.90;;;;;;4964163;28;20539;-68
2022/01/25 13:40:45;;;;;;;58.65;23.63;;;4.60;99.90;;;;;;4959374;28;20050;-68
2022/01/25 13:45:57;;;;;;;60.55;24.27;;;4.60;99.90;;;;;;4949583;28;20061;-68
2022/01/25 13:48:25;;;;;;;64.35;26.13;;;4.60;99.90;;;;;;4966482;28;20392;-68
2022/01/25 13:50:55;;;;;;;59.10;24.20;;;4.60;99.90;;;;;;4940569;28;20506;-68
2022/01/25 13:53:21;;;;;;;58.88;22.77;;;4.60;99.90;;;;;;4955205;28;20038;-68
2022/01/25 13:55:49;;;;;;;62.55;25.27;;;4.60;99.90;;;;;;4955376;28;20109;-68
2022/01/25 13:58:25;;;;;;;61.08;24.70;;;4.60;99.90;;;;;;4951645;28;20045;-68
2022/01/25 14:00:53;;;;;;;62.15;23.95;;;4.60;99.90;;;;;;4962568;28;20431;-68
2022/01/25 14:03:32;;;;;;;56.67;24.75;;;4.60;99.90;;;;;;4956356;28;20035;-68
2022/01/25 14:05:58;;;;;;;66.45;25.63;;;4.60;99.90;;;;;;4962817;28;20090;-67
2022/01/25 14:08:37;;;;;;;66.38;26.35;;;4.60;99.90;;;;;;4959967;28;20050;-68
2022/01/25 14:11:15;;;;;;;62.15;24.30;;;4.60;99.90;;;;;;4939980;28;20035;-68
2022/01/25 14:24:56;;;;;;;61.78;24.80;;;4.60;99.90;;;;;;4945592;28;20130;-68
2022/01/25 14:27:31;;;;;;;55.30;24.03;;;4.50;99.90;;;;;;4958476;28;20497;-68
2022/01/25 14:29:57;;;;;;;63.22;25.25;;;4.50;99.90;;;;;;4959967;28;20051;-68
2022/01/25 14:32:31;;;;;;;62.57;25.17;;;4.50;99.90;;;;;;4956284;28;20043;-68
2022/01/25 14:35:07;;;;;;;60.60;24.92;;;4.50;99.90;;;;;;4958134;28;20477;-68
2022/01/25 14:37:33;;;;;;;63.80;25.10;;;4.50;99.90;;;;;;4958926;28;20500;-68
2022/01/25 14:40:08;;;;;;;56.95;22.33;;;4.50;99.90;;;;;;4962376;28;20039;-68
2022/01/25 14:42:40;;;;;;;67.95;25.38;;;4.50;99.90;;;;;;4953510;28;20427;-68
2022/01/25 14:45:08;;;;;;;62.92;24.10;;;4.50;99.90;;;;;;4963489;28;20092;-67